Aeroporto :
LOGIN :

Iscrizione | Disclaimer

   EN    FR    IT 

 










Sommario :    VFR   VFR Marginale   IFR   IFR Intensivo   IFR Molto Intensivo
Visibilità : 
Base nubi : 
>= 8 km
>= 3000ft
5 / 8 km
1000 / 3000 ft
1500m / 5 km
500 / 1000 ft
800 / 1500m
200 / 500 ft
< 800m
< 200 ft
Simboli :   Temporali  Nebbia  Neve Forte  Precipitazioni Forti  Vento > 20 kt
SIGMETs :   Varie  Temporali  Ghiacco  Turbolenza  Onda orograficha  Ceneri Vulcaniche






- Altitudine del aeroporto : 13 ft
- Codice IATA : SNR


LFRZ - St-Nazaire

ULTIMO METAR :
  • 101430Z AUTO 13005KT 040V210 CAVOK 33/18 Q1011 TEMPO SCT100TCU

METARs OBSOLETI :
  • 101400Z AUTO 11006KT 030V170 CAVOK 33/18 Q1011 TEMPO SCT100TCU
  • 101330Z AUTO 16005KT 090V190 CAVOK 32/20 Q1011 TEMPO SCT100TCU
  • 101300Z AUTO 03007KT 320V100 CAVOK 32/19 Q1012 TEMPO SCT100TCU
  • 101230Z AUTO 04004KT 340V080 CAVOK 31/20 Q1012 TEMPO SCT100TCU
  • 101200Z AUTO VRB04KT CAVOK 29/20 Q1012 TEMPO SCT100TCU

TAF TAF LFRZ
Valido dal 10 a 12 ore il 11 a 12 ore UTC


101100Z 1012/1112 06008KT CAVOK
BECMG 1012/1015 VRB04KT
TEMPO 1012/1018 -SHRA SCT100TCU
TEMPO 1100/1108 3000 BR BKN004
BECMG 1108/1110 18008KT
TEMPO 1108/1112 -SHRA SCT080CB



MetMap, La meteo Aeronautica in un colpo d'occhio ! - Copyright ORBIFLY Dicembre 2007 - Disclaimer

ORBIFLY MET'MAP TEAM :

Programmazione e sviluppo : Alexandra Zaïnal
Concezione : Baudouin d'Aumeries
Aiuto per la programmazione : Marc-Olivier Méhu
Supporto tecnico e logistico : Manuel Goepfert
Aiuto per la traduzione : Arnaldo La Scala

Contatto : metmap@orbifly.com




FONTI E CREDITI :

   NOAA